Time;durP1;ratioP1;P1;durP2;ratioP2;P2;SDS_P1;SDS_P2;PMS_P1;PMS_P2;Temp;Humidity;BMP_temperature;BMP_pressure;BME280_temperature;BME280_humidity;BME280_pressure;Samples;Min_cycle;Max_cycle;Signal;HPM_P1;HPM_P2
2021/09/21 00:01:17;;;;;;;;;;;;;;;;;;10404693;28;20372;-63
2021/09/21 00:06:14;;;;;;;;;;;;;;;;;;10393013;28;20058;-63
2021/09/21 00:11:11;;;;;;;;;;;;;;;;;;10396261;28;19969;-62
2021/09/21 00:16:08;;;;;;;;;;;;;;;;;;10409773;28;19912;-61
2021/09/21 00:21:06;;;;;;;;;;;;;;;;;;10403959;28;19919;-61
2021/09/21 00:26:03;;;;;;;;;;;;;;;;;;10384774;28;19919;-61
2021/09/21 00:31:10;;;;;;;;;;;;;;;;;;10393534;28;20285;-62
2021/09/21 00:36:08;;;;;;;;;;;;;;;;;;10394923;28;19919;-62
2021/09/21 00:41:05;;;;;;;;;;;;;;;;;;10407755;28;19913;-60
2021/09/21 00:46:02;;;;;;;;;;;;;;;;;;10403276;28;19917;-61
2021/09/21 00:51:00;;;;;;;;;;;;;;;;;;10408728;28;19985;-59
2021/09/21 00:55:57;;;;;;;;;;;;;;;;;;10407948;28;19916;-62
2021/09/21 01:00:54;;;;;;;;;;;;;;;;;;10408031;28;19916;-61
2021/09/21 01:05:51;;;;;;;;;;;;;;;;;;10405135;28;19941;-61
2021/09/21 01:10:48;;;;;;;;;;;;;;;;;;10391160;28;19920;-63
2021/09/21 01:15:46;;;;;;;;;;;;;;;;;;10400239;28;19913;-60
2021/09/21 01:20:43;;;;;;;;;;;;;;;;;;10389082;28;20385;-61
2021/09/21 01:25:41;;;;;;;;;;;;;;;;;;10416452;28;19999;-59
2021/09/21 01:30:38;;;;;;;;;;;;;;;;;;10413196;28;20347;-62
2021/09/21 01:35:35;;;;;;;;;;;;;;;;;;10390936;28;19918;-59
2021/09/21 01:40:32;;;;;;;;;;;;;;;;;;10410038;28;20017;-61
2021/09/21 01:45:30;;;;;;;;;;;;;;;;;;10408306;28;20418;-61
2021/09/21 01:51:03;;;;;;;;;;;;;;;;;;10398536;28;19924;-62
2021/09/21 02:01:07;;;;;;;;;;;;;;;;;;10394980;28;19915;-57
2021/09/21 02:06:05;;;;;;;;;;;;;;;;;;10401116;28;20404;-61
2021/09/21 02:11:03;;;;;;;;;;;;;;;;;;10415638;28;19924;-62
2021/09/21 02:16:00;;;;;;;;;;;;;;;;;;10406266;28;20369;-63
2021/09/21 02:20:57;;;;;;;;;;;;;;;;;;10398746;28;19950;-62
2021/09/21 02:25:54;;;;;;;;;;;;;;;;;;10415073;28;19912;-61
2021/09/21 02:30:52;;;;;;;;;;;;;;;;;;10400507;28;19916;-63
2021/09/21 02:35:49;;;;;;;;;;;;;;;;;;10426571;28;19912;-61
2021/09/21 02:40:46;;;;;;;;;;;;;;;;;;10386210;28;19912;-62
2021/09/21 02:45:43;;;;;;;;;;;;;;;;;;10386394;28;19923;-61
2021/09/21 02:50:41;;;;;;;;;;;;;;;;;;10403409;28;19916;-62
2021/09/21 02:55:38;;;;;;;;;;;;;;;;;;10387516;28;19916;-60
2021/09/21 03:00:35;;;;;;;;;;;;;;;;;;10391963;28;19912;-62
2021/09/21 03:05:38;;;;;;;;;;;;;;;;;;10428029;28;19919;-62
2021/09/21 03:21:08;;;;;;;;;;;;;;;;;;10393286;28;19927;-62
2021/09/21 03:26:05;;;;;;;;;;;;;;;;;;10397556;28;20337;-61
2021/09/21 03:31:02;;;;;;;;;;;;;;;;;;10365723;28;19912;-63
2021/09/21 03:36:00;;;;;;;;;;;;;;;;;;10386401;28;19928;-62
2021/09/21 03:40:57;;;;;;;;;;;;;;;;;;10400888;28;20003;-64
2021/09/21 03:45:54;;;;;;;;;;;;;;;;;;10427176;28;20377;-62
2021/09/21 03:50:51;;;;;;;;;;;;;;;;;;10426794;28;19927;-65
2021/09/21 03:55:49;;;;;;;;;;;;;;;;;;10427137;28;19916;-62
2021/09/21 04:00:46;;;;;;;;;;;;;;;;;;10427115;28;19913;-64
2021/09/21 04:05:43;;;;;;;;;;;;;;;;;;10402021;28;19919;-62
2021/09/21 04:10:40;;;;;;;;;;;;;;;;;;10394734;28;19923;-65
2021/09/21 04:15:38;;;;;;;;;;;;;;;;;;10348284;28;20083;-66
2021/09/21 04:20:35;;;;;;;;;;;;;;;;;;10405515;22;19928;-62
2021/09/21 04:25:32;;;;;;;;;;;;;;;;;;10381110;28;19913;-63
2021/09/21 04:30:30;;;;;;;;;;;;;;;;;;10380416;28;19981;-62
2021/09/21 04:35:27;;;;;;;;;;;;;;;;;;10361908;28;20293;-62
2021/09/21 04:40:24;;;;;;;;;;;;;;;;;;10381494;28;19962;-63
2021/09/21 04:45:22;;;;;;;;;;;;;;;;;;10387740;28;19951;-63
2021/09/21 04:50:19;;;;;;;;;;;;;;;;;;10389320;28;19913;-64
2021/09/21 04:55:16;;;;;;;;;;;;;;;;;;10415946;22;19932;-56
2021/09/21 05:00:14;;;;;;;;;;;;;;;;;;10356708;28;19932;-56
2021/09/21 05:05:12;;;;;;;;;;;;;;;;;;10366375;28;19920;-59
2021/09/21 05:10:09;;;;;;;;;;;;;;;;;;10363060;28;19921;-58
2021/09/21 05:15:06;;;;;;;;;;;;;;;;;;10359076;28;19990;-59
2021/09/21 05:20:03;;;;;;;;;;;;;;;;;;10365899;28;20220;-58
2021/09/21 05:25:01;;;;;;;;;;;;;;;;;;10360036;28;19916;-57
2021/09/21 05:29:58;;;;;;;;;;;;;;;;;;10364438;28;19924;-56
2021/09/21 05:34:55;;;;;;;;;;;;;;;;;;10358279;28;20267;-56
2021/09/21 05:39:53;;;;;;;;;;;;;;;;;;10350200;28;19919;-56
2021/09/21 05:44:50;;;;;;;;;;;;;;;;;;10355430;28;20011;-59
2021/09/21 05:49:47;;;;;;;;;;;;;;;;;;10350909;28;20317;-59
2021/09/21 05:54:44;;;;;;;;;;;;;;;;;;10354200;28;19952;-57
2021/09/21 05:59:42;;;;;;;;;;;;;;;;;;10356146;28;20366;-59
2021/09/21 06:04:39;;;;;;;;;;;;;;;;;;10354800;28;19927;-58
2021/09/21 06:09:36;;;;;;;;;;;;;;;;;;10356412;28;19912;-57
2021/09/21 06:14:34;;;;;;;;;;;;;;;;;;10360557;28;19924;-59
2021/09/21 06:19:31;;;;;;;;;;;;;;;;;;10361178;28;19912;-57
2021/09/21 06:24:28;;;;;;;;;;;;;;;;;;10335368;28;19923;-58
2021/09/21 06:29:25;;;;;;;;;;;;;;;;;;10358941;28;19924;-56
2021/09/21 06:34:24;;;;;;;;;;;;;;;;;;10359617;28;20060;-58
2021/09/21 06:39:21;;;;;;;;;;;;;;;;;;10336644;28;19943;-58
2021/09/21 06:44:19;;;;;;;;;;;;;;;;;;10343754;28;19928;-57
2021/09/21 06:49:16;;;;;;;;;;;;;;;;;;10346366;28;19932;-57
2021/09/21 06:54:13;;;;;;;;;;;;;;;;;;10355072;28;19920;-56
2021/09/21 06:59:11;;;;;;;;;;;;;;;;;;10350478;28;19920;-57
2021/09/21 07:04:08;;;;;;;;;;;;;;;;;;10340570;28;20020;-57
2021/09/21 07:09:05;;;;;;;;;;;;;;;;;;10353164;28;20011;-57
2021/09/21 07:14:02;;;;;;;;;;;;;;;;;;10345529;28;20023;-57
2021/09/21 07:19:00;;;;;;;;;;;;;;;;;;10354699;28;20354;-56
2021/09/21 07:23:57;;;;;;;;;;;;;;;;;;10354858;28;19916;-57
2021/09/21 07:28:54;;;;;;;;;;;;;;;;;;10349715;28;20107;-59
2021/09/21 07:33:51;;;;;;;;;;;;;;;;;;10351566;28;20008;-59
2021/09/21 07:38:49;;;;;;;;;;;;;;;;;;10340783;28;19926;-57
2021/09/21 07:43:46;;;;;;;;;;;;;;;;;;10346437;28;19919;-59
2021/09/21 07:48:43;;;;;;;;;;;;;;;;;;10351639;28;19938;-57
2021/09/21 07:53:41;;;;;;;;;;;;;;;;;;10356037;28;20456;-57
2021/09/21 07:58:38;;;;;;;;;;;;;;;;;;10355879;28;19920;-57
2021/09/21 08:03:35;;;;;;;;;;;;;;;;;;10352800;28;19939;-57
2021/09/21 08:08:34;;;;;;;;;;;;;;;;;;10362347;28;20042;-56
2021/09/21 08:13:31;;;;;;;;;;;;;;;;;;10350973;28;20034;-60
2021/09/21 08:18:28;;;;;;;;;;;;;;;;;;10350353;28;20293;-59
2021/09/21 08:23:26;;;;;;;;;;;;;;;;;;10359522;28;20386;-59
2021/09/21 08:28:23;;;;;;;;;;;;;;;;;;10351030;28;19946;-59
2021/09/21 08:33:20;;;;;;;;;;;;;;;;;;10350997;28;19975;-60
2021/09/21 08:38:17;;;;;;;;;;;;;;;;;;10359190;28;19927;-60
2021/09/21 08:43:16;;;;;;;;;;;;;;;;;;10351584;28;20086;-60
2021/09/21 08:48:13;;;;;;;;;;;;;;;;;;10336649;28;20015;-59
2021/09/21 08:53:10;;;;;;;;;;;;;;;;;;10371098;28;19916;-59
2021/09/21 08:58:08;;;;;;;;;;;;;;;;;;10359103;28;19916;-62
2021/09/21 09:03:06;;;;;;;;;;;;;;;;;;10390254;28;19916;-62
2021/09/21 09:08:03;;;;;;;;;;;;;;;;;;10376387;28;19962;-63
2021/09/21 09:13:01;;;;;;;;;;;;;;;;;;10379055;28;19916;-63
2021/09/21 09:17:58;;;;;;;;;;;;;;;;;;10375950;28;19948;-63
2021/09/21 09:22:55;;;;;;;;;;;;;;;;;;10367721;28;19915;-62
2021/09/21 09:27:52;;;;;;;;;;;;;;;;;;10389702;28;19909;-62
2021/09/21 09:32:50;;;;;;;;;;;;;;;;;;10373629;28;20394;-62
2021/09/21 09:37:47;;;;;;;;;;;;;;;;;;10372934;28;19908;-61
2021/09/21 09:42:44;;;;;;;;;;;;;;;;;;10388432;28;19991;-63
2021/09/21 09:47:42;;;;;;;;;;;;;;;;;;10350560;28;20363;-58
2021/09/21 09:52:39;;;;;;;;;;;;;;;;;;10376577;28;19916;-63
2021/09/21 09:57:36;;;;;;;;;;;;;;;;;;10388079;28;19920;-59
2021/09/21 10:02:33;;;;;;;;;;;;;;;;;;10387353;28;19908;-61
2021/09/21 10:07:31;;;;;;;;;;;;;;;;;;10388256;28;20307;-62
2021/09/21 10:12:28;;;;;;;;;;;;;;;;;;10389027;28;20285;-62
2021/09/21 10:17:25;;;;;;;;;;;;;;;;;;10349420;28;19909;-64
2021/09/21 10:22:22;;;;;;;;;;;;;;;;;;10364898;28;19956;-61
2021/09/21 10:27:20;;;;;;;;;;;;;;;;;;10373450;28;19912;-60
2021/09/21 10:32:17;;;;;;;;;;;;;;;;;;10345520;28;19923;-63
2021/09/21 10:37:15;;;;;;;;;;;;;;;;;;10378744;28;19919;-60
2021/09/21 10:42:13;;;;;;;;;;;;;;;;;;10381120;28;20007;-63
2021/09/21 10:47:11;;;;;;;;;;;;;;;;;;10345266;28;19956;-64
2021/09/21 10:52:08;;;;;;;;;;;;;;;;;;10345621;28;19916;-62
2021/09/21 10:57:05;;;;;;;;;;;;;;;;;;10376210;28;20416;-61
2021/09/21 11:02:02;;;;;;;;;;;;;;;;;;10358893;28;20353;-60
2021/09/21 11:07:00;;;;;;;;;;;;;;;;;;10359672;28;20006;-61
2021/09/21 11:11:57;;;;;;;;;;;;;;;;;;10340817;28;19999;-61
2021/09/21 11:16:54;;;;;;;;;;;;;;;;;;10385122;28;19919;-61
2021/09/21 11:21:51;;;;;;;;;;;;;;;;;;10385921;28;20349;-62
2021/09/21 11:26:49;;;;;;;;;;;;;;;;;;10385489;28;20483;-62
2021/09/21 11:31:48;;;;;;;;;;;;;;;;;;10386226;28;19923;-60
2021/09/21 11:36:49;;;;;;;;;;;;;;;;;;10385676;28;19913;-61
2021/09/21 11:41:46;;;;;;;;;;;;;;;;;;10383606;28;20374;-59
2021/09/21 11:46:44;;;;;;;;;;;;;;;;;;10344220;28;20437;-62
2021/09/21 11:51:41;;;;;;;;;;;;;;;;;;10349478;28;20427;-59
2021/09/21 11:56:38;;;;;;;;;;;;;;;;;;10356157;28;20007;-61
2021/09/21 12:01:35;;;;;;;;;;;;;;;;;;10375280;28;20382;-61
2021/09/21 12:06:33;;;;;;;;;;;;;;;;;;10351777;28;19917;-62
2021/09/21 12:11:32;;;;;;;;;;;;;;;;;;10374188;28;19933;-59
2021/09/21 12:16:30;;;;;;;;;;;;;;;;;;10392804;28;20287;-61
2021/09/21 12:21:27;;;;;;;;;;;;;;;;;;10392485;28;19917;-62
2021/09/21 12:26:24;;;;;;;;;;;;;;;;;;10374270;28;19912;-62
2021/09/21 12:31:22;;;;;;;;;;;;;;;;;;10384749;28;20007;-61
2021/09/21 12:36:19;;;;;;;;;;;;;;;;;;10391734;28;20389;-61
2021/09/21 12:41:16;;;;;;;;;;;;;;;;;;10391095;28;20006;-62
2021/09/21 12:46:14;;;;;;;;;;;;;;;;;;10390954;28;19962;-60
2021/09/21 12:51:11;;;;;;;;;;;;;;;;;;10391632;28;19928;-63
2021/09/21 12:56:09;;;;;;;;;;;;;;;;;;10390503;28;19916;-62
2021/09/21 13:01:07;;;;;;;;;;;;;;;;;;10388291;28;20027;-62
2021/09/21 13:06:04;;;;;;;;;;;;;;;;;;10349851;28;20444;-62
2021/09/21 13:11:01;;;;;;;;;;;;;;;;;;10349954;28;19932;-61
2021/09/21 13:16:01;;;;;;;;;;;;;;;;;;10350331;28;19913;-62
2021/09/21 13:20:58;;;;;;;;;;;;;;;;;;10331647;28;19913;-62
2021/09/21 13:25:55;;;;;;;;;;;;;;;;;;10372827;28;19920;-62
2021/09/21 13:30:52;;;;;;;;;;;;;;;;;;10330076;28;20400;-63
2021/09/21 13:35:50;;;;;;;;;;;;;;;;;;10359001;28;19921;-63
2021/09/21 13:40:47;;;;;;;;;;;;;;;;;;10364086;28;19941;-62
2021/09/21 13:45:45;;;;;;;;;;;;;;;;;;10366236;28;19913;-62
2021/09/21 13:50:42;;;;;;;;;;;;;;;;;;10372930;28;19916;-63
2021/09/21 13:55:39;;;;;;;;;;;;;;;;;;10373453;28;20435;-60
2021/09/21 14:00:37;;;;;;;;;;;;;;;;;;10365202;28;19912;-64
2021/09/21 14:05:34;;;;;;;;;;;;;;;;;;10364559;28;20023;-60
2021/09/21 14:10:32;;;;;;;;;;;;;;;;;;10368432;28;20154;-64
2021/09/21 14:15:29;;;;;;;;;;;;;;;;;;10382234;28;20366;-63
2021/09/21 14:20:26;;;;;;;;;;;;;;;;;;10366905;28;19912;-62
2021/09/21 14:25:24;;;;;;;;;;;;;;;;;;10370025;28;20390;-64
2021/09/21 14:30:21;;;;;;;;;;;;;;;;;;10379192;28;20324;-64
2021/09/21 14:35:18;;;;;;;;;;;;;;;;;;10372699;28;20129;-62
2021/09/21 14:40:15;;;;;;;;;;;;;;;;;;10364400;28;19913;-63
2021/09/21 14:45:13;;;;;;;;;;;;;;;;;;10375418;28;19944;-63
2021/09/21 14:50:10;;;;;;;;;;;;;;;;;;10382317;28;19916;-63
2021/09/21 14:55:08;;;;;;;;;;;;;;;;;;10387139;28;19919;-63
2021/09/21 15:00:05;;;;;;;;;;;;;;;;;;10338538;28;20342;-63
2021/09/21 15:05:02;;;;;;;;;;;;;;;;;;10371296;28;20182;-63
2021/09/21 15:09:59;;;;;;;;;;;;;;;;;;10384154;28;19916;-61
2021/09/21 15:14:57;;;;;;;;;;;;;;;;;;10383277;28;20370;-63
2021/09/21 15:19:56;;;;;;;;;;;;;;;;;;10373779;28;19912;-61
2021/09/21 15:24:53;;;;;;;;;;;;;;;;;;10361830;28;19912;-62
2021/09/21 15:29:50;;;;;;;;;;;;;;;;;;10352316;28;20012;-63
2021/09/21 15:34:49;;;;;;;;;;;;;;;;;;10358568;28;19990;-63
2021/09/21 15:39:47;;;;;;;;;;;;;;;;;;10361313;28;19982;-63
2021/09/21 15:44:44;;;;;;;;;;;;;;;;;;10378293;28;19996;-62
2021/09/21 15:49:42;;;;;;;;;;;;;;;;;;10372599;28;19941;-64
2021/09/21 15:54:39;;;;;;;;;;;;;;;;;;10362668;28;19962;-63
2021/09/21 15:59:37;;;;;;;;;;;;;;;;;;10360428;28;19913;-64
2021/09/21 16:04:34;;;;;;;;;;;;;;;;;;10358601;28;19919;-64
2021/09/21 16:09:32;;;;;;;;;;;;;;;;;;10364683;28;19919;-62
2021/09/21 16:14:29;;;;;;;;;;;;;;;;;;10362614;28;19920;-64
2021/09/21 16:19:26;;;;;;;;;;;;;;;;;;10362548;28;19912;-64
2021/09/21 16:24:24;;;;;;;;;;;;;;;;;;10354046;28;20431;-60
2021/09/21 16:29:22;;;;;;;;;;;;;;;;;;10362383;28;19924;-62
2021/09/21 16:34:19;;;;;;;;;;;;;;;;;;10360069;28;19928;-63
2021/09/21 16:39:16;;;;;;;;;;;;;;;;;;10373699;28;20340;-60
2021/09/21 16:44:14;;;;;;;;;;;;;;;;;;10373128;28;19912;-62
2021/09/21 16:49:11;;;;;;;;;;;;;;;;;;10374854;28;19915;-62
2021/09/21 16:54:08;;;;;;;;;;;;;;;;;;10362858;28;19916;-63
2021/09/21 16:59:06;;;;;;;;;;;;;;;;;;10374354;28;20366;-62
2021/09/21 17:04:03;;;;;;;;;;;;;;;;;;10386366;28;19989;-64
2021/09/21 17:09:01;;;;;;;;;;;;;;;;;;10375095;28;19908;-64
2021/09/21 17:13:58;;;;;;;;;;;;;;;;;;10379300;28;19920;-62
2021/09/21 17:18:56;;;;;;;;;;;;;;;;;;10363921;28;19975;-61
2021/09/21 17:23:55;;;;;;;;;;;;;;;;;;10349017;28;19944;-63
2021/09/21 17:28:52;;;;;;;;;;;;;;;;;;10394407;28;19916;-63
2021/09/21 17:33:49;;;;;;;;;;;;;;;;;;10385439;28;19924;-64
2021/09/21 17:38:47;;;;;;;;;;;;;;;;;;10369868;28;20321;-63
2021/09/21 17:43:44;;;;;;;;;;;;;;;;;;10375972;28;19915;-63
2021/09/21 17:48:42;;;;;;;;;;;;;;;;;;10375577;28;19927;-63
2021/09/21 17:53:40;;;;;;;;;;;;;;;;;;10369904;28;20051;-62
2021/09/21 17:58:37;;;;;;;;;;;;;;;;;;10371351;28;19974;-63
2021/09/21 18:03:34;;;;;;;;;;;;;;;;;;10378607;28;19904;-63
2021/09/21 18:08:32;;;;;;;;;;;;;;;;;;10384017;28;19904;-62
2021/09/21 18:13:30;;;;;;;;;;;;;;;;;;10373049;28;20373;-63
2021/09/21 18:18:27;;;;;;;;;;;;;;;;;;10390094;28;19913;-62
2021/09/21 18:23:27;;;;;;;;;;;;;;;;;;10372659;28;19921;-62
2021/09/21 18:28:24;;;;;;;;;;;;;;;;;;10366910;28;19913;-63
2021/09/21 18:33:22;;;;;;;;;;;;;;;;;;10385157;28;19916;-63
2021/09/21 18:38:19;;;;;;;;;;;;;;;;;;10366956;28;19916;-63
2021/09/21 18:43:17;;;;;;;;;;;;;;;;;;10372957;28;19913;-63
2021/09/21 18:48:14;;;;;;;;;;;;;;;;;;10381860;28;19963;-63
2021/09/21 18:53:11;;;;;;;;;;;;;;;;;;10386584;28;19997;-63
2021/09/21 18:58:09;;;;;;;;;;;;;;;;;;10370510;28;19994;-63
2021/09/21 19:03:06;;;;;;;;;;;;;;;;;;10375062;28;19996;-61
2021/09/21 19:08:03;;;;;;;;;;;;;;;;;;10376670;28;19967;-63
2021/09/21 19:13:04;;;;;;;;;;;;;;;;;;10370873;28;20360;-61
2021/09/21 19:18:02;;;;;;;;;;;;;;;;;;10387189;28;19923;-63
2021/09/21 19:22:59;;;;;;;;;;;;;;;;;;10381983;28;19927;-62
2021/09/21 19:27:57;;;;;;;;;;;;;;;;;;10372344;28;20412;-63
2021/09/21 19:32:54;;;;;;;;;;;;;;;;;;10382711;28;19943;-62
2021/09/21 19:37:52;;;;;;;;;;;;;;;;;;10348655;28;20392;-62
2021/09/21 19:42:49;;;;;;;;;;;;;;;;;;10383403;28;20299;-63
2021/09/21 19:47:47;;;;;;;;;;;;;;;;;;10369567;28;19913;-59
2021/09/21 19:52:44;;;;;;;;;;;;;;;;;;10374758;28;19924;-63
2021/09/21 19:57:41;;;;;;;;;;;;;;;;;;10366727;28;19943;-62
2021/09/21 20:02:38;;;;;;;;;;;;;;;;;;10380968;28;19924;-63
2021/09/21 20:07:36;;;;;;;;;;;;;;;;;;10380981;28;20370;-62
2021/09/21 20:12:33;;;;;;;;;;;;;;;;;;10356710;28;19923;-63
2021/09/21 20:17:30;;;;;;;;;;;;;;;;;;10378575;28;19916;-62
2021/09/21 20:22:28;;;;;;;;;;;;;;;;;;10361686;28;20370;-63
2021/09/21 20:27:27;;;;;;;;;;;;;;;;;;10379817;28;19916;-62
2021/09/21 20:32:24;;;;;;;;;;;;;;;;;;10380395;28;20019;-62
2021/09/21 20:42:19;;;;;;;;;;;;;;;;;;10371464;28;19917;-63
2021/09/21 20:47:16;;;;;;;;;;;;;;;;;;10381012;28;19924;-62
2021/09/21 20:52:13;;;;;;;;;;;;;;;;;;10365469;28;19946;-64
2021/09/21 20:57:11;;;;;;;;;;;;;;;;;;10373185;28;19959;-62
2021/09/21 21:02:08;;;;;;;;;;;;;;;;;;10374633;28;19920;-62
2021/09/21 21:07:05;;;;;;;;;;;;;;;;;;10366016;28;20314;-62
2021/09/21 21:12:02;;;;;;;;;;;;;;;;;;10354078;28;19930;-62
2021/09/21 21:17:00;;;;;;;;;;;;;;;;;;10374453;28;19923;-63
2021/09/21 21:21:57;;;;;;;;;;;;;;;;;;10381042;28;19920;-62
2021/09/21 21:26:54;;;;;;;;;;;;;;;;;;10361275;28;19913;-62
2021/09/21 21:31:52;;;;;;;;;;;;;;;;;;10398602;28;19915;-63
2021/09/21 21:36:49;;;;;;;;;;;;;;;;;;10374902;28;19920;-63
2021/09/21 21:41:46;;;;;;;;;;;;;;;;;;10383958;28;20405;-63
2021/09/21 21:46:44;;;;;;;;;;;;;;;;;;10384989;28;19912;-62
2021/09/21 21:51:41;;;;;;;;;;;;;;;;;;10383576;28;19920;-63
2021/09/21 21:56:38;;;;;;;;;;;;;;;;;;10331978;28;19920;-63
2021/09/21 22:01:35;;;;;;;;;;;;;;;;;;10363702;28;19939;-63
2021/09/21 22:06:33;;;;;;;;;;;;;;;;;;10355990;28;20165;-63
2021/09/21 22:11:30;;;;;;;;;;;;;;;;;;10378318;28;19920;-61
2021/09/21 22:16:29;;;;;;;;;;;;;;;;;;10377245;28;20572;-62
2021/09/21 22:21:26;;;;;;;;;;;;;;;;;;10363092;28;20259;-63
2021/09/21 22:26:23;;;;;;;;;;;;;;;;;;10368482;28;19915;-62
2021/09/21 22:31:20;;;;;;;;;;;;;;;;;;10385523;28;19921;-64
2021/09/21 22:36:18;;;;;;;;;;;;;;;;;;10386402;28;20019;-62
2021/09/21 22:41:16;;;;;;;;;;;;;;;;;;10377049;28;19912;-63
2021/09/21 22:46:14;;;;;;;;;;;;;;;;;;10381718;28;20389;-59
2021/09/21 22:51:11;;;;;;;;;;;;;;;;;;10371082;28;20019;-63
2021/09/21 22:56:08;;;;;;;;;;;;;;;;;;10382646;28;19917;-63
2021/09/21 23:01:06;;;;;;;;;;;;;;;;;;10385751;28;19916;-62
2021/09/21 23:06:03;;;;;;;;;;;;;;;;;;10348786;28;20251;-64
2021/09/21 23:11:00;;;;;;;;;;;;;;;;;;10369815;28;19943;-63
2021/09/21 23:15:59;;;;;;;;;;;;;;;;;;10380730;28;19909;-64
2021/09/21 23:20:57;;;;;;;;;;;;;;;;;;10371178;28;19912;-63
2021/09/21 23:25:54;;;;;;;;;;;;;;;;;;10372303;28;19912;-62
2021/09/21 23:30:52;;;;;;;;;;;;;;;;;;10364439;28;20022;-63
2021/09/21 23:35:49;;;;;;;;;;;;;;;;;;10365066;28;19913;-61
2021/09/21 23:40:47;;;;;;;;;;;;;;;;;;10347159;28;20343;-63
2021/09/21 23:45:44;;;;;;;;;;;;;;;;;;10381500;28;19912;-62
2021/09/21 23:50:41;;;;;;;;;;;;;;;;;;10375388;28;19908;-62
2021/09/21 23:55:39;;;;;;;;;;;;;;;;;;10383569;28;20190;-63
